createdAt,value
2018-11-23T00:00:23.367Z,-3.30
2018-11-23T00:02:52.520Z,-3.30
2018-11-23T00:05:21.522Z,-3.40
2018-11-23T00:07:50.809Z,-3.40
2018-11-23T00:10:20.817Z,-3.40
2018-11-23T00:12:50.271Z,-3.50
2018-11-23T00:15:20.144Z,-3.50
2018-11-23T00:17:48.707Z,-3.60
2018-11-23T00:20:19.770Z,-3.60
2018-11-23T00:22:48.325Z,-3.60
2018-11-23T00:25:18.201Z,-3.60
2018-11-23T00:27:47.132Z,-3.50
2018-11-23T00:30:16.965Z,-3.60
2018-11-23T00:32:45.859Z,-3.60
2018-11-23T00:35:16.252Z,-3.50
2018-11-23T00:37:45.575Z,-3.50
2018-11-23T00:40:23.681Z,-3.50
2018-11-23T00:42:52.659Z,-3.50
2018-11-23T00:45:21.657Z,-3.60
2018-11-23T00:47:50.965Z,-3.60
2018-11-23T00:50:20.730Z,-3.70
2018-11-23T00:52:50.607Z,-3.70
2018-11-23T00:55:20.192Z,-3.70
2018-11-23T00:57:48.712Z,-3.70
2018-11-23T01:00:26.795Z,-3.70
2018-11-23T01:02:56.153Z,-3.70
2018-11-23T01:05:24.668Z,-3.70
2018-11-23T01:07:53.178Z,-3.70
2018-11-23T01:10:23.032Z,-3.70
2018-11-23T01:12:52.830Z,-3.60
2018-11-23T01:15:21.567Z,-3.60
2018-11-23T01:17:50.236Z,-3.60
2018-11-23T01:20:22.097Z,-3.70
2018-11-23T01:22:51.387Z,-3.60
2018-11-23T01:25:21.414Z,-3.60
2018-11-23T01:27:51.081Z,-3.70
2018-11-23T01:30:23.444Z,-3.60
2018-11-23T01:32:52.105Z,-3.60
2018-11-23T01:35:20.707Z,-3.70
2018-11-23T01:37:50.029Z,-3.80
2018-11-23T01:40:21.210Z,-3.90
2018-11-23T01:42:50.561Z,-3.90
2018-11-23T01:45:19.301Z,-3.90
2018-11-23T01:47:48.195Z,-3.90
2018-11-23T01:50:19.050Z,-3.90
2018-11-23T01:52:48.687Z,-3.90
2018-11-23T01:55:17.989Z,-3.90
2018-11-23T01:57:47.051Z,-4.00
2018-11-23T02:00:18.590Z,-4.10
2018-11-23T02:02:47.815Z,-4.10
2018-11-23T02:05:16.425Z,-4.10
2018-11-23T02:07:44.906Z,-4.20
2018-11-23T02:10:15.033Z,-4.20
2018-11-23T02:12:43.817Z,-4.20
2018-11-23T02:15:14.970Z,-4.30
2018-11-23T02:17:43.599Z,-4.30
2018-11-23T02:20:13.762Z,-4.40
2018-11-23T02:22:42.616Z,-4.50
2018-11-23T02:25:11.810Z,-4.50
2018-11-23T02:27:41.305Z,-4.50
2018-11-23T02:30:13.635Z,-4.50
2018-11-23T02:32:42.690Z,-4.60
2018-11-23T02:35:11.896Z,-4.60
2018-11-23T02:37:40.602Z,-4.60
2018-11-23T02:40:10.604Z,-4.60
2018-11-23T02:42:39.656Z,-4.60
2018-11-23T02:45:12.256Z,-4.70
2018-11-23T02:47:41.656Z,-4.70
2018-11-23T02:50:10.413Z,-4.70
2018-11-23T02:52:39.625Z,-4.70
2018-11-23T02:55:09.161Z,-4.70
2018-11-23T02:57:37.933Z,-4.70
2018-11-23T03:00:09.002Z,-4.70
2018-11-23T03:02:37.527Z,-4.80
2018-11-23T03:05:07.036Z,-4.80
2018-11-23T03:07:36.592Z,-4.80
2018-11-23T03:10:05.956Z,-4.80
2018-11-23T03:12:34.585Z,-4.90
2018-11-23T03:15:03.177Z,-4.90
2018-11-23T03:17:31.883Z,-5.00
2018-11-23T03:20:00.449Z,-4.90
2018-11-23T03:22:29.045Z,-4.90
2018-11-23T03:24:57.637Z,-4.90
2018-11-23T03:27:26.101Z,-4.90
2018-11-23T03:29:54.616Z,-4.90
2018-11-23T03:32:23.656Z,-5.00
2018-11-23T03:34:52.238Z,-5.00
2018-11-23T03:37:20.730Z,-5.00
2018-11-23T03:39:49.432Z,-5.00
2018-11-23T03:42:18.385Z,-5.10
2018-11-23T03:44:47.117Z,-5.20
2018-11-23T03:47:15.714Z,-5.20
2018-11-23T03:49:44.544Z,-5.20
2018-11-23T03:52:13.825Z,-5.30
2018-11-23T03:54:42.396Z,-5.20
2018-11-23T03:57:11.004Z,-5.30
2018-11-23T03:59:40.207Z,-5.30
2018-11-23T04:02:08.817Z,-5.30
2018-11-23T04:04:37.399Z,-5.30
2018-11-23T04:07:06.330Z,-5.20
2018-11-23T04:09:34.981Z,-5.20
2018-11-23T04:12:04.312Z,-5.30
2018-11-23T04:14:32.948Z,-5.30
2018-11-23T04:17:01.451Z,-5.30
2018-11-23T04:19:30.121Z,-5.30
2018-11-23T04:21:58.717Z,-5.30
2018-11-23T04:24:27.292Z,-5.30
2018-11-23T04:26:55.893Z,-5.30
2018-11-23T04:29:24.462Z,-5.40
2018-11-23T04:31:52.989Z,-5.40
2018-11-23T04:34:21.933Z,-5.40
2018-11-23T04:36:50.425Z,-5.50
2018-11-23T04:39:18.948Z,-5.50
2018-11-23T04:41:48.036Z,-5.50
2018-11-23T04:44:16.522Z,-5.50
2018-11-23T04:46:45.975Z,-5.50
2018-11-23T04:49:14.524Z,-5.50
2018-11-23T04:51:43.185Z,-5.60
2018-11-23T04:54:11.720Z,-5.60
2018-11-23T04:56:40.877Z,-5.50
2018-11-23T04:59:09.333Z,-5.50
2018-11-23T05:01:38.072Z,-5.50
2018-11-23T05:04:06.838Z,-5.60
2018-11-23T05:06:35.466Z,-5.60
2018-11-23T05:09:06.304Z,-5.60
2018-11-23T05:11:35.033Z,-5.60
2018-11-23T05:14:03.785Z,-5.60
2018-11-23T05:16:32.897Z,-5.50
2018-11-23T05:19:01.547Z,-5.50
2018-11-23T05:21:30.225Z,-5.60
2018-11-23T05:23:59.060Z,-5.60
2018-11-23T05:26:27.934Z,-5.60
2018-11-23T05:28:56.852Z,-5.60
2018-11-23T05:31:26.632Z,-5.60
2018-11-23T05:33:55.301Z,-5.60
2018-11-23T05:36:23.870Z,-5.70
2018-11-23T05:38:52.518Z,-5.70
2018-11-23T05:41:21.161Z,-5.70
2018-11-23T05:43:50.240Z,-5.70
2018-11-23T05:46:18.713Z,-5.70
2018-11-23T05:48:47.513Z,-5.80
2018-11-23T05:51:16.111Z,-5.70
2018-11-23T05:53:44.647Z,-5.70
2018-11-23T05:56:13.317Z,-5.70
2018-11-23T05:58:42.753Z,-5.70
2018-11-23T06:01:11.256Z,-5.70
2018-11-23T06:03:39.924Z,-5.70
2018-11-23T06:06:08.708Z,-5.60
2018-11-23T06:08:37.227Z,-5.70
2018-11-23T06:11:06.466Z,-5.60
2018-11-23T06:13:35.073Z,-5.70
2018-11-23T06:16:03.680Z,-5.70
2018-11-23T06:18:32.889Z,-5.70
2018-11-23T06:21:02.068Z,-5.70
2018-11-23T06:23:31.072Z,-5.70
2018-11-23T06:26:18.723Z,-5.80
2018-11-23T06:28:47.559Z,-5.80
2018-11-23T06:31:16.291Z,-5.80
2018-11-23T06:33:47.166Z,-5.80
2018-11-23T06:36:15.701Z,-5.80
2018-11-23T06:38:44.249Z,-5.80
2018-11-23T06:41:13.573Z,-5.90
2018-11-23T06:43:42.072Z,-5.90
2018-11-23T06:46:11.869Z,-5.90
2018-11-23T06:48:40.388Z,-5.90
2018-11-23T06:51:09.286Z,-5.90
2018-11-23T06:53:38.043Z,-5.90
2018-11-23T06:56:07.020Z,-5.90
2018-11-23T06:58:35.863Z,-5.90
2018-11-23T07:01:04.605Z,-5.80
2018-11-23T07:03:33.265Z,-5.80
2018-11-23T07:06:01.872Z,-5.80
2018-11-23T07:08:30.698Z,-5.80
2018-11-23T07:11:00.888Z,-5.80
2018-11-23T07:13:30.409Z,-5.70
2018-11-23T07:15:59.334Z,-5.70
2018-11-23T07:18:28.257Z,-5.80
2018-11-23T07:20:56.911Z,-5.70
2018-11-23T07:23:25.742Z,-5.60
2018-11-23T07:25:55.127Z,-5.60
2018-11-23T07:28:23.774Z,-5.50
2018-11-23T07:30:52.400Z,-5.40
2018-11-23T07:33:21.285Z,-5.50
2018-11-23T07:35:49.919Z,-5.40
2018-11-23T07:38:18.565Z,-5.40
2018-11-23T07:40:58.330Z,-5.30
2018-11-23T07:43:26.852Z,-5.30
2018-11-23T07:45:55.549Z,-5.30
2018-11-23T07:48:24.262Z,-5.20
2018-11-23T07:50:53.512Z,-5.20
2018-11-23T07:53:22.180Z,-5.10
2018-11-23T07:55:50.992Z,-5.00
2018-11-23T07:58:19.724Z,-4.90
2018-11-23T08:00:48.340Z,-4.70
2018-11-23T08:03:16.941Z,-4.70
2018-11-23T08:05:45.444Z,-4.60
2018-11-23T08:08:14.096Z,-4.50
2018-11-23T08:10:41.943Z,-4.30
2018-11-23T08:13:10.525Z,-4.20
2018-11-23T08:15:39.778Z,-4.10
2018-11-23T08:18:08.993Z,-4.00
2018-11-23T08:20:37.610Z,-3.90
2018-11-23T08:23:06.126Z,-3.80
2018-11-23T08:25:34.633Z,-3.70
2018-11-23T08:28:03.736Z,-3.60
2018-11-23T08:30:32.253Z,-3.60
2018-11-23T08:33:00.833Z,-3.30
2018-11-23T08:35:30.106Z,-3.00
2018-11-23T08:37:58.725Z,-2.80
2018-11-23T08:40:28.010Z,-2.80
2018-11-23T08:42:57.289Z,-2.80
2018-11-23T08:45:26.838Z,-2.80
2018-11-23T08:47:55.386Z,-2.70
2018-11-23T08:50:25.566Z,-2.70
2018-11-23T08:52:54.233Z,-2.60
2018-11-23T08:55:23.342Z,-2.50
2018-11-23T08:57:51.883Z,-2.40
2018-11-23T09:00:25.048Z,-2.30
2018-11-23T09:02:55.218Z,-2.20
2018-11-23T09:05:23.846Z,-2.10
2018-11-23T09:07:53.518Z,-2.00
2018-11-23T09:10:23.760Z,-1.90
2018-11-23T09:12:54.180Z,-1.60
2018-11-23T09:15:22.987Z,-1.20
2018-11-23T09:17:51.585Z,-1.10
2018-11-23T09:20:20.527Z,-1.10
2018-11-23T09:22:49.373Z,-1.20
2018-11-23T09:25:20.336Z,-1.20
2018-11-23T09:27:49.243Z,-1.10
2018-11-23T09:30:19.617Z,-1.10
2018-11-23T09:32:48.940Z,-1.00
2018-11-23T09:35:17.788Z,-1.00
2018-11-23T09:37:47.027Z,-0.90
2018-11-23T09:40:17.933Z,-0.80
2018-11-23T09:42:46.745Z,-0.60
2018-11-23T09:45:24.374Z,-0.60
2018-11-23T09:47:54.434Z,-0.50
2018-11-23T09:50:23.988Z,-0.40
2018-11-23T09:52:53.943Z,-0.30
2018-11-23T09:55:24.066Z,-0.20
2018-11-23T09:57:52.191Z,-0.10
2018-11-23T10:00:23.185Z,0.00
2018-11-23T10:02:52.974Z,0.00
2018-11-23T10:05:22.200Z,0.10
2018-11-23T10:07:52.460Z,0.20
2018-11-23T10:10:21.781Z,0.20
2018-11-23T10:12:50.624Z,0.30
2018-11-23T10:15:19.960Z,0.30
2018-11-23T10:17:48.748Z,0.40
2018-11-23T10:20:22.462Z,0.50
2018-11-23T10:22:51.401Z,0.60
2018-11-23T10:25:21.624Z,0.70
2018-11-23T10:27:50.379Z,0.80
2018-11-23T10:30:21.165Z,0.80
2018-11-23T10:32:51.318Z,0.90
2018-11-23T10:35:19.844Z,1.00
2018-11-23T10:37:49.712Z,1.10
2018-11-23T10:40:19.881Z,1.20
2018-11-23T10:42:48.521Z,1.20
2018-11-23T10:45:20.357Z,1.30
2018-11-23T10:47:49.926Z,1.40
2018-11-23T10:50:19.794Z,1.50
2018-11-23T10:52:48.629Z,1.60
2018-11-23T10:55:19.594Z,1.70
2018-11-23T10:57:48.396Z,1.80
2018-11-23T11:00:23.199Z,1.90
2018-11-23T11:02:58.438Z,2.00
2018-11-23T11:05:32.269Z,2.10
2018-11-23T11:08:02.924Z,2.30
2018-11-23T11:10:31.557Z,2.40
2018-11-23T11:13:00.513Z,2.50
2018-11-23T11:15:29.189Z,2.60
2018-11-23T11:17:57.803Z,2.70
2018-11-23T11:20:27.055Z,2.80
2018-11-23T11:22:56.165Z,2.80
2018-11-23T11:25:24.921Z,3.00
2018-11-23T11:27:54.193Z,3.10
2018-11-23T11:30:22.895Z,3.10
2018-11-23T11:32:52.142Z,3.20
2018-11-23T11:35:20.817Z,3.30
2018-11-23T11:37:49.356Z,3.40
2018-11-23T11:40:19.259Z,3.50
2018-11-23T11:42:47.752Z,3.50
2018-11-23T11:45:19.401Z,3.60
2018-11-23T11:47:48.579Z,3.70
2018-11-23T11:50:17.782Z,3.80
2018-11-23T11:52:47.918Z,3.90
2018-11-23T11:55:18.024Z,4.10
2018-11-23T11:57:47.380Z,4.20
2018-11-23T12:00:23.533Z,4.20
2018-11-23T12:02:52.589Z,4.30
2018-11-23T12:05:21.230Z,4.30
2018-11-23T12:07:50.040Z,4.30
2018-11-23T12:10:20.465Z,4.40
2018-11-23T12:12:49.105Z,4.50
2018-11-23T12:15:18.151Z,4.60
2018-11-23T12:17:46.880Z,4.60
2018-11-23T12:20:17.988Z,4.70
2018-11-23T12:22:47.375Z,4.80
2018-11-23T12:25:16.231Z,4.80
2018-11-23T12:27:44.910Z,5.00
2018-11-23T12:30:17.380Z,5.00
2018-11-23T12:32:47.056Z,5.10
2018-11-23T12:35:16.528Z,5.20
2018-11-23T12:37:45.091Z,5.30
2018-11-23T12:40:15.423Z,5.40
2018-11-23T12:42:44.828Z,5.50
2018-11-23T12:45:15.053Z,5.60
2018-11-23T12:47:43.704Z,5.70
2018-11-23T12:50:15.143Z,5.70
2018-11-23T12:52:43.885Z,5.80
2018-11-23T12:55:13.045Z,5.80
2018-11-23T12:57:42.591Z,5.80
2018-11-23T13:00:19.646Z,5.90
2018-11-23T13:02:50.676Z,5.90
2018-11-23T13:05:20.220Z,5.90
2018-11-23T13:07:49.568Z,5.90
2018-11-23T13:10:18.231Z,5.90
2018-11-23T13:12:50.918Z,5.90
2018-11-23T13:15:15.968Z,5.90
2018-11-23T13:17:44.764Z,5.90
2018-11-23T13:20:14.786Z,5.90
2018-11-23T13:22:43.740Z,5.90
2018-11-23T13:25:14.985Z,6.00
2018-11-23T13:27:44.657Z,6.00
2018-11-23T13:30:15.546Z,6.10
2018-11-23T13:32:44.644Z,6.10
2018-11-23T13:35:15.114Z,6.00
2018-11-23T13:37:43.865Z,6.00
2018-11-23T13:40:15.019Z,6.00
2018-11-23T13:42:43.942Z,6.00
2018-11-23T13:45:13.810Z,6.00
2018-11-23T13:47:42.668Z,6.00
2018-11-23T13:50:15.011Z,6.00
2018-11-23T13:52:44.777Z,6.00
2018-11-23T13:55:13.647Z,6.10
2018-11-23T13:57:42.515Z,6.10
2018-11-23T14:00:16.554Z,6.00
2018-11-23T14:02:45.693Z,6.00
2018-11-23T14:05:23.229Z,6.00
2018-11-23T14:07:53.379Z,5.90
2018-11-23T14:10:23.432Z,5.90
2018-11-23T14:12:52.186Z,5.90
2018-11-23T14:15:22.434Z,5.80
2018-11-23T14:17:51.977Z,5.80
2018-11-23T14:20:21.749Z,5.80
2018-11-23T14:22:50.653Z,5.70
2018-11-23T14:25:21.172Z,5.70
2018-11-23T14:27:50.473Z,5.60
2018-11-23T14:30:23.084Z,5.50
2018-11-23T14:32:51.955Z,5.50
2018-11-23T14:35:23.478Z,5.40
2018-11-23T14:37:53.236Z,5.30
2018-11-23T14:40:22.547Z,5.30
2018-11-23T14:42:51.512Z,5.20
2018-11-23T14:45:22.918Z,5.10
2018-11-23T14:47:52.558Z,5.00
2018-11-23T14:50:23.616Z,5.00
2018-11-23T14:52:53.552Z,4.90
2018-11-23T14:55:22.681Z,4.80
2018-11-23T14:57:51.832Z,4.80
2018-11-23T15:00:23.845Z,4.70
2018-11-23T15:02:53.797Z,4.60
2018-11-23T15:05:22.650Z,4.50
2018-11-23T15:07:51.426Z,4.40
2018-11-23T15:10:23.552Z,4.40
2018-11-23T15:12:54.032Z,4.30
2018-11-23T15:15:24.112Z,4.20
2018-11-23T15:17:53.543Z,4.20
2018-11-23T15:20:25.882Z,4.10
2018-11-23T15:22:56.349Z,4.00
2018-11-23T15:25:25.905Z,4.00
2018-11-23T15:27:54.546Z,3.90
2018-11-23T15:30:27.532Z,3.80
2018-11-23T15:32:56.713Z,3.80
2018-11-23T15:35:25.725Z,3.70
2018-11-23T15:37:54.501Z,3.70
2018-11-23T15:40:25.241Z,3.60
2018-11-23T15:42:57.220Z,3.60
2018-11-23T15:45:27.046Z,3.60
2018-11-23T15:47:55.959Z,3.50
2018-11-23T15:50:27.649Z,3.40
2018-11-23T15:52:56.325Z,3.30
2018-11-23T15:55:27.112Z,3.20
2018-11-23T15:57:58.217Z,3.10
2018-11-23T16:00:32.572Z,3.00
2018-11-23T16:03:01.401Z,3.00
2018-11-23T16:05:30.103Z,2.90
2018-11-23T16:08:01.438Z,2.90
2018-11-23T16:10:33.208Z,2.90
2018-11-23T16:13:10.723Z,2.90
2018-11-23T16:15:32.466Z,2.90
2018-11-23T16:18:01.642Z,3.00
2018-11-23T16:20:32.716Z,3.00
2018-11-23T16:23:03.947Z,3.00
2018-11-23T16:25:32.844Z,3.10
2018-11-23T16:28:04.237Z,3.10
2018-11-23T16:30:38.173Z,3.10
2018-11-23T16:33:08.340Z,3.10
2018-11-23T16:35:38.167Z,3.10
2018-11-23T16:38:09.296Z,3.20
2018-11-23T16:40:41.774Z,3.20
2018-11-23T16:43:11.826Z,3.20
2018-11-23T16:45:41.277Z,3.20
2018-11-23T16:48:10.939Z,3.30
2018-11-23T16:50:39.885Z,3.30
2018-11-23T16:53:08.811Z,3.30
2018-11-23T16:55:37.707Z,3.20
2018-11-23T16:58:07.729Z,3.20
2018-11-23T17:00:38.435Z,3.10
2018-11-23T17:03:10.124Z,3.20
2018-11-23T17:05:40.297Z,3.10
2018-11-23T17:08:09.959Z,3.10
2018-11-23T17:10:38.806Z,3.00
2018-11-23T17:13:07.555Z,2.90
2018-11-23T17:15:36.281Z,2.80
2018-11-23T17:18:05.224Z,2.70
2018-11-23T17:20:34.337Z,2.70
2018-11-23T17:23:04.148Z,2.60
2018-11-23T17:25:33.487Z,2.60
2018-11-23T17:28:03.975Z,2.60
2018-11-23T17:30:33.513Z,2.50
2018-11-23T17:33:02.533Z,2.40
2018-11-23T17:35:31.404Z,2.40
2018-11-23T17:38:00.149Z,2.40
2018-11-23T17:40:30.625Z,2.40
2018-11-23T17:42:59.357Z,2.40
2018-11-23T17:45:30.327Z,2.30
2018-11-23T17:47:59.279Z,2.30
2018-11-23T17:50:29.538Z,2.30
2018-11-23T17:52:58.857Z,2.20
2018-11-23T17:55:27.826Z,2.20
2018-11-23T17:58:00.981Z,2.20
2018-11-23T18:00:38.566Z,2.30
2018-11-23T18:03:01.449Z,2.30
2018-11-23T18:05:31.068Z,2.30
2018-11-23T18:08:00.475Z,2.30
2018-11-23T18:10:30.532Z,2.30
2018-11-23T18:12:59.958Z,2.30
2018-11-23T18:15:30.910Z,2.40
2018-11-23T18:18:00.725Z,2.40
2018-11-23T18:20:30.425Z,2.30
2018-11-23T18:23:00.132Z,2.30
2018-11-23T18:25:30.584Z,2.30
2018-11-23T18:28:00.274Z,2.30
2018-11-23T18:30:30.181Z,2.30
2018-11-23T18:32:58.939Z,2.30
2018-11-23T18:35:27.657Z,2.30
2018-11-23T18:37:56.315Z,2.20
2018-11-23T18:40:25.141Z,2.20
2018-11-23T18:42:53.877Z,2.20
2018-11-23T18:45:23.242Z,2.20
2018-11-23T18:47:52.412Z,2.20
2018-11-23T18:50:21.655Z,2.10
2018-11-23T18:52:50.317Z,2.10
2018-11-23T18:55:19.073Z,2.00
2018-11-23T18:57:47.902Z,2.00
2018-11-23T19:00:16.841Z,2.00
2018-11-23T19:02:46.762Z,2.10
2018-11-23T19:05:20.808Z,2.10
2018-11-23T19:07:49.496Z,2.10
2018-11-23T19:10:18.284Z,2.10
2018-11-23T19:12:47.213Z,2.10
2018-11-23T19:15:17.488Z,2.10
2018-11-23T19:17:45.867Z,2.10
2018-11-23T19:20:15.906Z,2.20
2018-11-23T19:22:46.409Z,2.20
2018-11-23T19:25:15.066Z,2.20
2018-11-23T19:27:43.726Z,2.20
2018-11-23T19:30:14.788Z,2.10
2018-11-23T19:32:43.498Z,2.10
2018-11-23T19:35:12.493Z,2.10
2018-11-23T19:37:41.317Z,2.10
2018-11-23T19:40:13.853Z,2.10
2018-11-23T19:42:43.077Z,2.10
2018-11-23T19:45:13.327Z,2.10
2018-11-23T19:47:41.951Z,2.10
2018-11-23T19:50:12.758Z,2.00
2018-11-23T19:52:41.840Z,2.00
2018-11-23T19:55:11.502Z,2.00
2018-11-23T19:57:40.392Z,2.00
2018-11-23T20:00:26.264Z,2.00
2018-11-23T20:02:55.064Z,2.00
2018-11-23T20:05:23.984Z,2.00
2018-11-23T20:07:54.220Z,2.00
2018-11-23T20:10:23.901Z,2.00
2018-11-23T20:12:54.527Z,2.00
2018-11-23T20:15:23.425Z,2.00
2018-11-23T20:17:52.256Z,2.00
2018-11-23T20:20:20.958Z,2.00
2018-11-23T20:22:50.545Z,1.90
2018-11-23T20:25:20.426Z,1.90
2018-11-23T20:27:50.587Z,1.90
2018-11-23T20:30:20.031Z,1.80
2018-11-23T20:32:49.049Z,1.80
2018-11-23T20:35:19.009Z,1.80
2018-11-23T20:37:47.780Z,1.80
2018-11-23T20:40:17.660Z,1.80
2018-11-23T20:42:46.559Z,1.80
2018-11-23T20:45:15.563Z,1.80
2018-11-23T20:47:44.603Z,1.70
2018-11-23T20:50:14.589Z,1.70
2018-11-23T20:52:43.485Z,1.70
2018-11-23T20:55:17.388Z,1.70
2018-11-23T20:57:46.314Z,1.60
2018-11-23T21:00:17.860Z,1.60
2018-11-23T21:02:47.654Z,1.60
2018-11-23T21:05:17.365Z,1.60
2018-11-23T21:07:46.419Z,1.60
2018-11-23T21:10:20.335Z,1.60
2018-11-23T21:12:47.649Z,1.50
2018-11-23T21:15:17.999Z,1.50
2018-11-23T21:17:47.410Z,1.50
2018-11-23T21:20:16.074Z,1.50
2018-11-23T21:22:44.845Z,1.50
2018-11-23T21:25:13.667Z,1.50
2018-11-23T21:27:42.355Z,1.50
2018-11-23T21:30:13.881Z,1.50
2018-11-23T21:32:42.699Z,1.50
2018-11-23T21:35:12.226Z,1.50
2018-11-23T21:37:41.908Z,1.40
2018-11-23T21:40:11.772Z,1.40
2018-11-23T21:42:40.612Z,1.40
2018-11-23T21:45:13.613Z,1.40
2018-11-23T21:47:43.301Z,1.30
2018-11-23T21:50:14.184Z,1.30
2018-11-23T21:52:43.019Z,1.30
2018-11-23T21:55:14.041Z,1.30
2018-11-23T21:57:42.867Z,1.30
2018-11-23T22:00:13.327Z,1.20
2018-11-23T22:02:42.853Z,1.20
2018-11-23T22:05:11.619Z,1.30
2018-11-23T22:07:40.277Z,1.30
2018-11-23T22:10:10.869Z,1.30
2018-11-23T22:12:39.544Z,1.30
2018-11-23T22:15:10.483Z,1.40
2018-11-23T22:17:39.865Z,1.50
2018-11-23T22:20:11.324Z,1.50
2018-11-23T22:22:40.095Z,1.50
2018-11-23T22:25:11.137Z,1.60
2018-11-23T22:27:39.820Z,1.60
2018-11-23T22:30:19.679Z,1.70
2018-11-23T22:32:48.332Z,1.70
2018-11-23T22:35:17.001Z,1.70
2018-11-23T22:37:45.690Z,1.70
2018-11-23T22:40:18.339Z,1.70
2018-11-23T22:42:49.796Z,1.70
2018-11-23T22:45:18.584Z,1.70
2018-11-23T22:47:47.300Z,1.70
2018-11-23T22:50:18.089Z,1.70
2018-11-23T22:52:47.823Z,1.80
2018-11-23T22:55:16.449Z,1.80
2018-11-23T22:57:45.976Z,1.70
2018-11-23T23:00:44.219Z,1.70
2018-11-23T23:03:13.444Z,1.80
2018-11-23T23:05:42.617Z,1.80
2018-11-23T23:08:10.781Z,1.70
2018-11-23T23:10:40.149Z,1.70
2018-11-23T23:13:09.574Z,1.70
2018-11-23T23:15:38.209Z,1.70
2018-11-23T23:18:07.451Z,1.80
2018-11-23T23:20:36.685Z,1.80
2018-11-23T23:23:06.268Z,1.90
2018-11-23T23:25:34.837Z,2.00
2018-11-23T23:28:03.461Z,2.00
2018-11-23T23:30:32.009Z,2.00
2018-11-23T23:33:01.411Z,2.10
2018-11-23T23:35:30.036Z,2.00
2018-11-23T23:37:59.394Z,2.00
2018-11-23T23:40:27.978Z,2.00
2018-11-23T23:42:56.586Z,2.00
2018-11-23T23:45:25.299Z,2.00
2018-11-23T23:47:54.821Z,2.10
2018-11-23T23:50:23.440Z,2.00
2018-11-23T23:52:52.096Z,2.10
2018-11-23T23:55:20.703Z,2.10
2018-11-23T23:57:49.645Z,2.10
